sensor_id;sensor_type;location;lat;lon;timestamp;P1;durP1;ratioP1;P2;durP2;ratioP2
10725;SDS011;5414;59.782;16.378;2023-06-22T00:01:08;17.37;;;15.97;;
10725;SDS011;5414;59.782;16.378;2023-06-22T00:03:34;18.57;;;17.03;;
10725;SDS011;5414;59.782;16.378;2023-06-22T00:06:00;17.83;;;16.53;;
10725;SDS011;5414;59.782;16.378;2023-06-22T00:08:26;18.00;;;16.50;;
10725;SDS011;5414;59.782;16.378;2023-06-22T00:10:52;17.37;;;15.97;;
10725;SDS011;5414;59.782;16.378;2023-06-22T00:13:18;16.87;;;15.57;;
10725;SDS011;5414;59.782;16.378;2023-06-22T00:15:44;17.83;;;16.43;;
10725;SDS011;5414;59.782;16.378;2023-06-22T00:18:10;17.97;;;16.57;;
10725;SDS011;5414;59.782;16.378;2023-06-22T00:20:38;17.97;;;16.60;;
10725;SDS011;5414;59.782;16.378;2023-06-22T00:23:07;18.50;;;17.07;;
10725;SDS011;5414;59.782;16.378;2023-06-22T00:25:35;18.33;;;16.97;;
10725;SDS011;5414;59.782;16.378;2023-06-22T00:28:02;17.93;;;16.57;;
10725;SDS011;5414;59.782;16.378;2023-06-22T00:30:28;18.27;;;16.87;;
10725;SDS011;5414;59.782;16.378;2023-06-22T00:32:54;17.50;;;16.20;;
10725;SDS011;5414;59.782;16.378;2023-06-22T00:35:20;19.37;;;17.80;;
10725;SDS011;5414;59.782;16.378;2023-06-22T00:37:46;18.87;;;17.27;;
10725;SDS011;5414;59.782;16.378;2023-06-22T00:40:12;18.90;;;17.30;;
10725;SDS011;5414;59.782;16.378;2023-06-22T00:42:39;18.40;;;17.00;;
10725;SDS011;5414;59.782;16.378;2023-06-22T00:45:05;19.20;;;17.70;;
10725;SDS011;5414;59.782;16.378;2023-06-22T00:47:32;18.47;;;16.93;;
10725;SDS011;5414;59.782;16.378;2023-06-22T00:49:59;19.30;;;17.70;;
10725;SDS011;5414;59.782;16.378;2023-06-22T00:52:25;18.90;;;17.40;;
10725;SDS011;5414;59.782;16.378;2023-06-22T00:54:54;19.80;;;18.30;;
10725;SDS011;5414;59.782;16.378;2023-06-22T00:57:22;18.03;;;16.63;;
10725;SDS011;5414;59.782;16.378;2023-06-22T00:59:50;17.73;;;16.43;;
10725;SDS011;5414;59.782;16.378;2023-06-22T01:02:16;18.93;;;17.43;;
10725;SDS011;5414;59.782;16.378;2023-06-22T01:04:42;18.97;;;17.37;;
10725;SDS011;5414;59.782;16.378;2023-06-22T01:12:30;17.37;;;16.07;;
10725;SDS011;5414;59.782;16.378;2023-06-22T01:15:02;17.23;;;15.83;;
10725;SDS011;5414;59.782;16.378;2023-06-22T01:17:31;17.33;;;16.00;;
10725;SDS011;5414;59.782;16.378;2023-06-22T01:19:57;16.27;;;15.00;;
10725;SDS011;5414;59.782;16.378;2023-06-22T01:22:26;17.13;;;15.73;;
10725;SDS011;5414;59.782;16.378;2023-06-22T01:25:10;16.40;;;15.03;;
10725;SDS011;5414;59.782;16.378;2023-06-22T01:30:06;16.37;;;15.07;;
10725;SDS011;5414;59.782;16.378;2023-06-22T01:32:35;16.00;;;14.80;;
10725;SDS011;5414;59.782;16.378;2023-06-22T01:35:03;15.47;;;14.37;;
10725;SDS011;5414;59.782;16.378;2023-06-22T01:37:29;15.77;;;14.57;;
10725;SDS011;5414;59.782;16.378;2023-06-22T01:39:57;16.07;;;14.87;;
10725;SDS011;5414;59.782;16.378;2023-06-22T01:42:24;15.73;;;14.53;;
10725;SDS011;5414;59.782;16.378;2023-06-22T01:44:50;14.60;;;13.57;;
10725;SDS011;5414;59.782;16.378;2023-06-22T01:47:17;15.30;;;14.10;;
10725;SDS011;5414;59.782;16.378;2023-06-22T01:49:43;14.77;;;13.67;;
10725;SDS011;5414;59.782;16.378;2023-06-22T01:52:10;14.93;;;13.83;;
10725;SDS011;5414;59.782;16.378;2023-06-22T01:54:38;14.80;;;13.60;;
10725;SDS011;5414;59.782;16.378;2023-06-22T01:57:04;14.70;;;13.60;;
10725;SDS011;5414;59.782;16.378;2023-06-22T02:02:09;14.63;;;13.53;;
10725;SDS011;5414;59.782;16.378;2023-06-22T02:04:48;14.73;;;13.43;;
10725;SDS011;5414;59.782;16.378;2023-06-22T02:07:17;14.17;;;13.07;;
10725;SDS011;5414;59.782;16.378;2023-06-22T02:09:44;14.10;;;12.90;;
10725;SDS011;5414;59.782;16.378;2023-06-22T02:12:11;14.50;;;13.37;;
10725;SDS011;5414;59.782;16.378;2023-06-22T02:14:38;13.87;;;12.77;;
10725;SDS011;5414;59.782;16.378;2023-06-22T02:17:05;15.73;;;14.43;;
10725;SDS011;5414;59.782;16.378;2023-06-22T02:19:40;14.47;;;13.37;;
10725;SDS011;5414;59.782;16.378;2023-06-22T02:22:07;15.07;;;13.77;;
10725;SDS011;5414;59.782;16.378;2023-06-22T02:24:33;15.07;;;13.97;;
10725;SDS011;5414;59.782;16.378;2023-06-22T02:27:02;14.37;;;13.17;;
10725;SDS011;5414;59.782;16.378;2023-06-22T02:29:28;14.90;;;13.57;;
10725;SDS011;5414;59.782;16.378;2023-06-22T02:31:54;14.17;;;13.00;;
10725;SDS011;5414;59.782;16.378;2023-06-22T02:34:21;14.50;;;13.40;;
10725;SDS011;5414;59.782;16.378;2023-06-22T02:36:47;14.70;;;13.60;;
10725;SDS011;5414;59.782;16.378;2023-06-22T02:39:25;14.40;;;13.30;;
10725;SDS011;5414;59.782;16.378;2023-06-22T02:41:52;15.17;;;13.97;;
10725;SDS011;5414;59.782;16.378;2023-06-22T02:44:19;14.07;;;13.00;;
10725;SDS011;5414;59.782;16.378;2023-06-22T02:46:45;14.87;;;13.73;;
10725;SDS011;5414;59.782;16.378;2023-06-22T02:49:11;14.07;;;12.97;;
10725;SDS011;5414;59.782;16.378;2023-06-22T02:51:42;14.50;;;13.40;;
10725;SDS011;5414;59.782;16.378;2023-06-22T02:54:08;14.00;;;12.90;;
10725;SDS011;5414;59.782;16.378;2023-06-22T02:56:34;13.77;;;12.77;;
10725;SDS011;5414;59.782;16.378;2023-06-22T02:59:01;13.90;;;12.70;;
10725;SDS011;5414;59.782;16.378;2023-06-22T03:01:27;14.20;;;13.00;;
10725;SDS011;5414;59.782;16.378;2023-06-22T03:03:55;14.43;;;13.23;;
10725;SDS011;5414;59.782;16.378;2023-06-22T03:06:21;14.20;;;13.10;;
10725;SDS011;5414;59.782;16.378;2023-06-22T03:08:48;14.43;;;13.33;;
10725;SDS011;5414;59.782;16.378;2023-06-22T03:11:14;14.57;;;13.30;;
10725;SDS011;5414;59.782;16.378;2023-06-22T03:13:40;13.10;;;12.13;;
10725;SDS011;5414;59.782;16.378;2023-06-22T03:16:06;14.00;;;12.90;;
10725;SDS011;5414;59.782;16.378;2023-06-22T03:18:32;13.53;;;12.53;;
10725;SDS011;5414;59.782;16.378;2023-06-22T03:20:58;13.97;;;12.80;;
10725;SDS011;5414;59.782;16.378;2023-06-22T03:23:27;13.13;;;12.13;;
10725;SDS011;5414;59.782;16.378;2023-06-22T03:25:53;13.80;;;12.70;;
10725;SDS011;5414;59.782;16.378;2023-06-22T03:28:21;14.10;;;13.00;;
10725;SDS011;5414;59.782;16.378;2023-06-22T03:30:47;13.23;;;12.23;;
10725;SDS011;5414;59.782;16.378;2023-06-22T03:33:13;13.70;;;12.67;;
10725;SDS011;5414;59.782;16.378;2023-06-22T03:35:39;14.23;;;13.03;;
10725;SDS011;5414;59.782;16.378;2023-06-22T03:38:05;14.77;;;13.50;;
10725;SDS011;5414;59.782;16.378;2023-06-22T03:40:31;14.73;;;13.53;;
10725;SDS011;5414;59.782;16.378;2023-06-22T03:42:57;13.67;;;12.57;;
10725;SDS011;5414;59.782;16.378;2023-06-22T03:45:23;14.60;;;13.40;;
10725;SDS011;5414;59.782;16.378;2023-06-22T03:47:49;13.57;;;12.47;;
10725;SDS011;5414;59.782;16.378;2023-06-22T03:50:15;14.03;;;12.83;;
10725;SDS011;5414;59.782;16.378;2023-06-22T03:52:41;14.17;;;13.17;;
10725;SDS011;5414;59.782;16.378;2023-06-22T03:55:07;14.07;;;12.90;;
10725;SDS011;5414;59.782;16.378;2023-06-22T03:57:33;13.77;;;12.67;;
10725;SDS011;5414;59.782;16.378;2023-06-22T03:59:59;14.07;;;12.87;;
10725;SDS011;5414;59.782;16.378;2023-06-22T04:02:25;13.33;;;12.23;;
10725;SDS011;5414;59.782;16.378;2023-06-22T04:04:51;13.10;;;12.07;;
10725;SDS011;5414;59.782;16.378;2023-06-22T04:07:17;12.57;;;11.60;;
10725;SDS011;5414;59.782;16.378;2023-06-22T04:09:43;13.73;;;12.60;;
10725;SDS011;5414;59.782;16.378;2023-06-22T04:12:10;13.27;;;12.23;;
10725;SDS011;5414;59.782;16.378;2023-06-22T04:14:36;12.57;;;11.57;;
10725;SDS011;5414;59.782;16.378;2023-06-22T04:17:02;13.13;;;12.03;;
10725;SDS011;5414;59.782;16.378;2023-06-22T04:19:28;12.93;;;11.80;;
10725;SDS011;5414;59.782;16.378;2023-06-22T04:21:54;13.23;;;12.13;;
10725;SDS011;5414;59.782;16.378;2023-06-22T04:24:20;12.77;;;11.77;;
10725;SDS011;5414;59.782;16.378;2023-06-22T04:26:46;13.67;;;12.53;;
10725;SDS011;5414;59.782;16.378;2023-06-22T04:29:12;13.07;;;12.03;;
10725;SDS011;5414;59.782;16.378;2023-06-22T04:31:39;14.47;;;13.17;;
10725;SDS011;5414;59.782;16.378;2023-06-22T04:34:06;14.23;;;13.10;;
10725;SDS011;5414;59.782;16.378;2023-06-22T04:36:36;12.87;;;11.67;;
10725;SDS011;5414;59.782;16.378;2023-06-22T04:39:06;12.73;;;11.83;;
10725;SDS011;5414;59.782;16.378;2023-06-22T04:41:37;13.23;;;12.23;;
10725;SDS011;5414;59.782;16.378;2023-06-22T04:44:11;14.10;;;13.00;;
10725;SDS011;5414;59.782;16.378;2023-06-22T04:46:37;13.80;;;12.70;;
10725;SDS011;5414;59.782;16.378;2023-06-22T04:49:07;13.43;;;12.43;;
10725;SDS011;5414;59.782;16.378;2023-06-22T04:51:40;13.70;;;12.60;;
10725;SDS011;5414;59.782;16.378;2023-06-22T04:54:07;13.83;;;12.73;;
10725;SDS011;5414;59.782;16.378;2023-06-22T04:56:33;13.80;;;12.70;;
10725;SDS011;5414;59.782;16.378;2023-06-22T04:59:00;13.50;;;12.40;;
10725;SDS011;5414;59.782;16.378;2023-06-22T05:01:26;13.27;;;12.27;;
10725;SDS011;5414;59.782;16.378;2023-06-22T05:03:52;13.63;;;12.40;;
10725;SDS011;5414;59.782;16.378;2023-06-22T05:06:24;14.63;;;13.23;;
10725;SDS011;5414;59.782;16.378;2023-06-22T05:08:52;13.23;;;12.13;;
10725;SDS011;5414;59.782;16.378;2023-06-22T05:11:18;14.00;;;12.83;;
10725;SDS011;5414;59.782;16.378;2023-06-22T05:13:44;13.87;;;12.77;;
10725;SDS011;5414;59.782;16.378;2023-06-22T05:16:10;12.90;;;11.97;;
10725;SDS011;5414;59.782;16.378;2023-06-22T05:18:36;13.13;;;12.13;;
10725;SDS011;5414;59.782;16.378;2023-06-22T05:21:02;13.80;;;12.60;;
10725;SDS011;5414;59.782;16.378;2023-06-22T05:23:28;13.60;;;12.57;;
10725;SDS011;5414;59.782;16.378;2023-06-22T05:25:54;12.70;;;11.80;;
10725;SDS011;5414;59.782;16.378;2023-06-22T05:28:22;13.03;;;12.03;;
10725;SDS011;5414;59.782;16.378;2023-06-22T05:30:50;13.83;;;12.73;;
10725;SDS011;5414;59.782;16.378;2023-06-22T05:33:16;13.47;;;12.37;;
10725;SDS011;5414;59.782;16.378;2023-06-22T05:35:42;12.63;;;11.63;;
10725;SDS011;5414;59.782;16.378;2023-06-22T05:38:08;13.27;;;12.10;;
10725;SDS011;5414;59.782;16.378;2023-06-22T05:40:34;12.20;;;11.20;;
10725;SDS011;5414;59.782;16.378;2023-06-22T05:43:00;13.30;;;12.23;;
10725;SDS011;5414;59.782;16.378;2023-06-22T05:45:26;12.13;;;11.20;;
10725;SDS011;5414;59.782;16.378;2023-06-22T05:47:52;12.03;;;11.13;;
10725;SDS011;5414;59.782;16.378;2023-06-22T05:50:18;12.10;;;10.90;;
10725;SDS011;5414;59.782;16.378;2023-06-22T05:52:44;11.67;;;10.67;;
10725;SDS011;5414;59.782;16.378;2023-06-22T05:55:10;11.40;;;10.50;;
10725;SDS011;5414;59.782;16.378;2023-06-22T05:57:38;12.23;;;11.13;;
10725;SDS011;5414;59.782;16.378;2023-06-22T06:00:04;11.33;;;10.33;;
10725;SDS011;5414;59.782;16.378;2023-06-22T06:02:35;10.80;;;9.90;;
10725;SDS011;5414;59.782;16.378;2023-06-22T06:05:01;12.07;;;10.77;;
10725;SDS011;5414;59.782;16.378;2023-06-22T06:07:27;11.33;;;10.43;;
10725;SDS011;5414;59.782;16.378;2023-06-22T06:09:54;11.03;;;9.93;;
10725;SDS011;5414;59.782;16.378;2023-06-22T06:12:20;10.70;;;9.90;;
10725;SDS011;5414;59.782;16.378;2023-06-22T06:14:46;10.83;;;9.93;;
10725;SDS011;5414;59.782;16.378;2023-06-22T06:17:12;10.73;;;9.77;;
10725;SDS011;5414;59.782;16.378;2023-06-22T06:19:38;10.70;;;9.70;;
10725;SDS011;5414;59.782;16.378;2023-06-22T06:22:05;9.47;;;8.67;;
10725;SDS011;5414;59.782;16.378;2023-06-22T06:24:32;9.90;;;9.10;;
10725;SDS011;5414;59.782;16.378;2023-06-22T06:26:58;10.07;;;8.77;;
10725;SDS011;5414;59.782;16.378;2023-06-22T06:29:24;9.47;;;8.67;;
10725;SDS011;5414;59.782;16.378;2023-06-22T06:31:50;9.20;;;8.40;;
10725;SDS011;5414;59.782;16.378;2023-06-22T06:34:16;8.90;;;8.20;;
10725;SDS011;5414;59.782;16.378;2023-06-22T06:36:42;9.10;;;8.30;;
10725;SDS011;5414;59.782;16.378;2023-06-22T06:39:09;9.10;;;8.30;;
10725;SDS011;5414;59.782;16.378;2023-06-22T06:41:35;8.40;;;7.70;;
10725;SDS011;5414;59.782;16.378;2023-06-22T06:44:01;9.77;;;7.90;;
10725;SDS011;5414;59.782;16.378;2023-06-22T06:46:27;8.73;;;8.00;;
10725;SDS011;5414;59.782;16.378;2023-06-22T06:48:53;8.10;;;7.30;;
10725;SDS011;5414;59.782;16.378;2023-06-22T06:51:19;8.17;;;7.47;;
10725;SDS011;5414;59.782;16.378;2023-06-22T06:53:45;8.17;;;7.47;;
10725;SDS011;5414;59.782;16.378;2023-06-22T06:56:11;10.43;;;7.93;;
10725;SDS011;5414;59.782;16.378;2023-06-22T06:58:40;8.40;;;7.37;;
10725;SDS011;5414;59.782;16.378;2023-06-22T07:01:08;8.37;;;7.30;;
10725;SDS011;5414;59.782;16.378;2023-06-22T07:03:34;8.07;;;6.97;;
10725;SDS011;5414;59.782;16.378;2023-06-22T07:06:00;8.23;;;7.50;;
10725;SDS011;5414;59.782;16.378;2023-06-22T07:08:26;8.00;;;7.20;;
10725;SDS011;5414;59.782;16.378;2023-06-22T07:10:53;7.57;;;6.83;;
10725;SDS011;5414;59.782;16.378;2023-06-22T07:13:20;6.77;;;6.27;;
10725;SDS011;5414;59.782;16.378;2023-06-22T07:15:46;8.13;;;7.47;;
10725;SDS011;5414;59.782;16.378;2023-06-22T07:18:12;7.73;;;6.47;;
10725;SDS011;5414;59.782;16.378;2023-06-22T07:20:38;7.43;;;6.60;;
10725;SDS011;5414;59.782;16.378;2023-06-22T07:23:07;7.47;;;6.80;;
10725;SDS011;5414;59.782;16.378;2023-06-22T07:25:33;7.10;;;6.47;;
10725;SDS011;5414;59.782;16.378;2023-06-22T07:28:02;7.43;;;6.73;;
10725;SDS011;5414;59.782;16.378;2023-06-22T07:30:30;7.30;;;6.70;;
10725;SDS011;5414;59.782;16.378;2023-06-22T07:32:56;6.63;;;6.13;;
10725;SDS011;5414;59.782;16.378;2023-06-22T07:35:23;8.83;;;6.40;;
10725;SDS011;5414;59.782;16.378;2023-06-22T07:37:49;6.80;;;6.13;;
10725;SDS011;5414;59.782;16.378;2023-06-22T07:40:15;6.87;;;6.07;;
10725;SDS011;5414;59.782;16.378;2023-06-22T07:42:41;6.90;;;6.30;;
10725;SDS011;5414;59.782;16.378;2023-06-22T07:45:07;6.70;;;6.20;;
10725;SDS011;5414;59.782;16.378;2023-06-22T07:47:34;7.50;;;6.90;;
10725;SDS011;5414;59.782;16.378;2023-06-22T07:50:00;6.63;;;6.10;;
10725;SDS011;5414;59.782;16.378;2023-06-22T07:52:27;6.20;;;5.70;;
10725;SDS011;5414;59.782;16.378;2023-06-22T07:54:53;6.43;;;5.93;;
10725;SDS011;5414;59.782;16.378;2023-06-22T07:57:20;6.20;;;5.63;;
10725;SDS011;5414;59.782;16.378;2023-06-22T07:59:46;5.90;;;5.40;;
10725;SDS011;5414;59.782;16.378;2023-06-22T08:02:12;6.40;;;5.90;;
10725;SDS011;5414;59.782;16.378;2023-06-22T08:04:38;6.10;;;5.50;;
10725;SDS011;5414;59.782;16.378;2023-06-22T08:07:06;5.93;;;5.43;;
10725;SDS011;5414;59.782;16.378;2023-06-22T08:09:32;6.23;;;5.73;;
10725;SDS011;5414;59.782;16.378;2023-06-22T08:11:58;5.50;;;5.00;;
10725;SDS011;5414;59.782;16.378;2023-06-22T08:14:25;5.33;;;4.60;;
10725;SDS011;5414;59.782;16.378;2023-06-22T08:16:51;5.53;;;5.03;;
10725;SDS011;5414;59.782;16.378;2023-06-22T08:19:17;5.30;;;4.90;;
10725;SDS011;5414;59.782;16.378;2023-06-22T08:21:43;6.97;;;4.90;;
10725;SDS011;5414;59.782;16.378;2023-06-22T08:24:09;5.53;;;5.03;;
10725;SDS011;5414;59.782;16.378;2023-06-22T08:26:35;5.90;;;5.23;;
10725;SDS011;5414;59.782;16.378;2023-06-22T08:29:05;5.55;;;5.07;;
10725;SDS011;5414;59.782;16.378;2023-06-22T08:31:31;6.00;;;5.50;;
10725;SDS011;5414;59.782;16.378;2023-06-22T08:34:01;5.90;;;5.30;;
10725;SDS011;5414;59.782;16.378;2023-06-22T08:36:27;5.80;;;5.30;;
10725;SDS011;5414;59.782;16.378;2023-06-22T08:39:00;5.97;;;5.38;;
10725;SDS011;5414;59.782;16.378;2023-06-22T08:41:28;5.57;;;5.03;;
10725;SDS011;5414;59.782;16.378;2023-06-22T08:43:54;5.40;;;4.95;;
10725;SDS011;5414;59.782;16.378;2023-06-22T08:46:20;5.13;;;4.63;;
10725;SDS011;5414;59.782;16.378;2023-06-22T08:48:49;5.40;;;4.90;;
10725;SDS011;5414;59.782;16.378;2023-06-22T08:51:15;6.20;;;4.78;;
10725;SDS011;5414;59.782;16.378;2023-06-22T08:53:42;4.93;;;4.53;;
10725;SDS011;5414;59.782;16.378;2023-06-22T08:56:10;4.97;;;4.57;;
10725;SDS011;5414;59.782;16.378;2023-06-22T08:58:36;5.23;;;4.83;;
10725;SDS011;5414;59.782;16.378;2023-06-22T09:01:02;5.28;;;4.70;;
10725;SDS011;5414;59.782;16.378;2023-06-22T09:03:28;5.35;;;4.93;;
10725;SDS011;5414;59.782;16.378;2023-06-22T09:05:54;5.40;;;4.90;;
10725;SDS011;5414;59.782;16.378;2023-06-22T09:08:20;5.20;;;4.80;;
10725;SDS011;5414;59.782;16.378;2023-06-22T09:10:46;4.72;;;4.40;;
10725;SDS011;5414;59.782;16.378;2023-06-22T09:13:12;5.07;;;4.68;;
10725;SDS011;5414;59.782;16.378;2023-06-22T09:15:38;5.15;;;4.75;;
10725;SDS011;5414;59.782;16.378;2023-06-22T09:18:04;5.30;;;4.90;;
10725;SDS011;5414;59.782;16.378;2023-06-22T09:20:32;5.00;;;4.60;;
10725;SDS011;5414;59.782;16.378;2023-06-22T09:22:58;5.05;;;4.65;;
10725;SDS011;5414;59.782;16.378;2023-06-22T09:25:24;5.03;;;4.72;;
10725;SDS011;5414;59.782;16.378;2023-06-22T09:27:50;5.15;;;4.25;;
10725;SDS011;5414;59.782;16.378;2023-06-22T09:30:16;7.60;;;4.68;;
10725;SDS011;5414;59.782;16.378;2023-06-22T09:32:42;5.00;;;4.53;;
10725;SDS011;5414;59.782;16.378;2023-06-22T09:35:09;4.72;;;4.18;;
10725;SDS011;5414;59.782;16.378;2023-06-22T09:37:35;5.68;;;4.28;;
10725;SDS011;5414;59.782;16.378;2023-06-22T09:40:02;4.63;;;4.22;;
10725;SDS011;5414;59.782;16.378;2023-06-22T09:42:33;4.47;;;3.80;;
10725;SDS011;5414;59.782;16.378;2023-06-22T09:44:59;4.25;;;3.95;;
10725;SDS011;5414;59.782;16.378;2023-06-22T09:47:26;4.68;;;4.28;;
10725;SDS011;5414;59.782;16.378;2023-06-22T09:49:52;4.50;;;4.20;;
10725;SDS011;5414;59.782;16.378;2023-06-22T09:52:20;4.60;;;4.15;;
10725;SDS011;5414;59.782;16.378;2023-06-22T09:54:46;4.70;;;4.30;;
10725;SDS011;5414;59.782;16.378;2023-06-22T09:57:12;4.70;;;4.30;;
10725;SDS011;5414;59.782;16.378;2023-06-22T09:59:38;4.60;;;3.97;;
10725;SDS011;5414;59.782;16.378;2023-06-22T10:02:08;4.47;;;4.07;;
10725;SDS011;5414;59.782;16.378;2023-06-22T10:04:35;4.40;;;4.00;;
10725;SDS011;5414;59.782;16.378;2023-06-22T10:07:01;3.90;;;3.60;;
10725;SDS011;5414;59.782;16.378;2023-06-22T10:09:27;4.13;;;3.83;;
10725;SDS011;5414;59.782;16.378;2023-06-22T10:11:53;4.13;;;3.83;;
10725;SDS011;5414;59.782;16.378;2023-06-22T10:14:20;4.20;;;3.80;;
10725;SDS011;5414;59.782;16.378;2023-06-22T10:16:46;3.92;;;3.67;;
10725;SDS011;5414;59.782;16.378;2023-06-22T10:19:13;5.43;;;3.97;;
10725;SDS011;5414;59.782;16.378;2023-06-22T10:21:39;4.18;;;3.58;;
10725;SDS011;5414;59.782;16.378;2023-06-22T10:24:05;3.67;;;3.38;;
10725;SDS011;5414;59.782;16.378;2023-06-22T10:26:34;3.83;;;3.53;;
10725;SDS011;5414;59.782;16.378;2023-06-22T10:29:01;3.67;;;3.38;;
10725;SDS011;5414;59.782;16.378;2023-06-22T10:31:28;3.75;;;3.55;;
10725;SDS011;5414;59.782;16.378;2023-06-22T10:33:54;3.83;;;3.53;;
10725;SDS011;5414;59.782;16.378;2023-06-22T10:36:22;3.88;;;3.58;;
10725;SDS011;5414;59.782;16.378;2023-06-22T10:38:48;3.67;;;3.47;;
10725;SDS011;5414;59.782;16.378;2023-06-22T10:41:14;4.20;;;3.90;;
10725;SDS011;5414;59.782;16.378;2023-06-22T10:43:41;3.70;;;3.40;;
10725;SDS011;5414;59.782;16.378;2023-06-22T10:46:07;3.88;;;3.58;;
10725;SDS011;5414;59.782;16.378;2023-06-22T10:48:33;3.65;;;3.35;;
10725;SDS011;5414;59.782;16.378;2023-06-22T10:50:59;3.83;;;3.53;;
10725;SDS011;5414;59.782;16.378;2023-06-22T10:53:26;4.15;;;3.85;;
10725;SDS011;5414;59.782;16.378;2023-06-22T10:55:52;3.55;;;3.35;;
10725;SDS011;5414;59.782;16.378;2023-06-22T10:58:19;3.97;;;3.58;;
10725;SDS011;5414;59.782;16.378;2023-06-22T11:00:45;3.95;;;3.65;;
10725;SDS011;5414;59.782;16.378;2023-06-22T11:03:11;3.53;;;3.30;;
10725;SDS011;5414;59.782;16.378;2023-06-22T11:05:39;3.53;;;3.22;;
10725;SDS011;5414;59.782;16.378;2023-06-22T11:08:06;3.50;;;3.30;;
10725;SDS011;5414;59.782;16.378;2023-06-22T11:10:32;3.63;;;3.42;;
10725;SDS011;5414;59.782;16.378;2023-06-22T11:12:58;3.67;;;3.38;;
10725;SDS011;5414;59.782;16.378;2023-06-22T11:15:24;3.65;;;3.40;;
10725;SDS011;5414;59.782;16.378;2023-06-22T11:17:50;3.30;;;3.10;;
10725;SDS011;5414;59.782;16.378;2023-06-22T11:20:17;3.65;;;3.35;;
10725;SDS011;5414;59.782;16.378;2023-06-22T11:22:43;3.33;;;3.00;;
10725;SDS011;5414;59.782;16.378;2023-06-22T11:25:09;3.78;;;3.47;;
10725;SDS011;5414;59.782;16.378;2023-06-22T11:27:37;3.40;;;3.10;;
10725;SDS011;5414;59.782;16.378;2023-06-22T11:30:04;4.10;;;3.33;;
10725;SDS011;5414;59.782;16.378;2023-06-22T11:32:31;3.42;;;3.17;;
10725;SDS011;5414;59.782;16.378;2023-06-22T11:34:57;3.50;;;3.20;;
10725;SDS011;5414;59.782;16.378;2023-06-22T11:37:23;3.50;;;3.20;;
10725;SDS011;5414;59.782;16.378;2023-06-22T11:39:49;3.47;;;3.20;;
10725;SDS011;5414;59.782;16.378;2023-06-22T11:42:15;3.40;;;3.10;;
10725;SDS011;5414;59.782;16.378;2023-06-22T11:44:41;3.72;;;3.25;;
10725;SDS011;5414;59.782;16.378;2023-06-22T11:47:08;3.25;;;3.05;;
10725;SDS011;5414;59.782;16.378;2023-06-22T11:49:34;3.60;;;3.03;;
10725;SDS011;5414;59.782;16.378;2023-06-22T11:52:01;3.45;;;3.15;;
10725;SDS011;5414;59.782;16.378;2023-06-22T11:54:27;3.50;;;3.05;;
10725;SDS011;5414;59.782;16.378;2023-06-22T11:56:53;3.35;;;3.05;;
10725;SDS011;5414;59.782;16.378;2023-06-22T11:59:19;3.47;;;3.17;;
10725;SDS011;5414;59.782;16.378;2023-06-22T12:01:47;3.47;;;3.28;;
10725;SDS011;5414;59.782;16.378;2023-06-22T12:04:15;3.60;;;3.30;;
10725;SDS011;5414;59.782;16.378;2023-06-22T12:06:41;3.58;;;3.38;;
10725;SDS011;5414;59.782;16.378;2023-06-22T12:09:08;3.60;;;3.10;;
10725;SDS011;5414;59.782;16.378;2023-06-22T12:11:34;3.67;;;3.47;;
10725;SDS011;5414;59.782;16.378;2023-06-22T12:14:01;3.50;;;3.20;;
10725;SDS011;5414;59.782;16.378;2023-06-22T12:16:27;3.47;;;3.13;;
10725;SDS011;5414;59.782;16.378;2023-06-22T12:18:54;3.63;;;3.33;;
10725;SDS011;5414;59.782;16.378;2023-06-22T12:21:21;4.20;;;3.80;;
10725;SDS011;5414;59.782;16.378;2023-06-22T12:23:47;3.83;;;3.25;;
10725;SDS011;5414;59.782;16.378;2023-06-22T12:26:13;3.28;;;3.08;;
10725;SDS011;5414;59.782;16.378;2023-06-22T12:28:39;3.42;;;3.22;;
10725;SDS011;5414;59.782;16.378;2023-06-22T12:31:05;3.45;;;3.15;;
10725;SDS011;5414;59.782;16.378;2023-06-22T12:33:31;3.85;;;3.55;;
10725;SDS011;5414;59.782;16.378;2023-06-22T12:35:59;3.22;;;3.03;;
10725;SDS011;5414;59.782;16.378;2023-06-22T12:38:25;3.50;;;3.30;;
10725;SDS011;5414;59.782;16.378;2023-06-22T12:40:51;3.50;;;3.20;;
10725;SDS011;5414;59.782;16.378;2023-06-22T12:43:17;3.55;;;3.25;;
10725;SDS011;5414;59.782;16.378;2023-06-22T12:45:43;3.67;;;3.38;;
10725;SDS011;5414;59.782;16.378;2023-06-22T12:48:09;3.20;;;3.00;;
10725;SDS011;5414;59.782;16.378;2023-06-22T12:50:37;3.95;;;3.00;;
10725;SDS011;5414;59.782;16.378;2023-06-22T12:53:03;3.83;;;3.42;;
10725;SDS011;5414;59.782;16.378;2023-06-22T12:55:31;3.55;;;3.25;;
10725;SDS011;5414;59.782;16.378;2023-06-22T12:57:58;3.92;;;3.58;;
10725;SDS011;5414;59.782;16.378;2023-06-22T13:00:24;3.45;;;2.80;;
10725;SDS011;5414;59.782;16.378;2023-06-22T13:02:50;4.60;;;3.17;;
10725;SDS011;5414;59.782;16.378;2023-06-22T13:05:16;3.05;;;2.85;;
10725;SDS011;5414;59.782;16.378;2023-06-22T13:07:42;3.15;;;2.95;;
10725;SDS011;5414;59.782;16.378;2023-06-22T13:10:09;3.70;;;3.20;;
10725;SDS011;5414;59.782;16.378;2023-06-22T13:12:35;3.63;;;2.85;;
10725;SDS011;5414;59.782;16.378;2023-06-22T13:15:01;3.17;;;2.80;;
10725;SDS011;5414;59.782;16.378;2023-06-22T13:17:28;2.88;;;2.67;;
10725;SDS011;5414;59.782;16.378;2023-06-22T13:19:54;3.20;;;2.90;;
10725;SDS011;5414;59.782;16.378;2023-06-22T13:22:33;3.50;;;3.20;;
10725;SDS011;5414;59.782;16.378;2023-06-22T13:25:05;3.20;;;2.90;;
10725;SDS011;5414;59.782;16.378;2023-06-22T13:27:31;3.33;;;2.85;;
10725;SDS011;5414;59.782;16.378;2023-06-22T13:29:57;3.10;;;2.80;;
10725;SDS011;5414;59.782;16.378;2023-06-22T13:32:23;3.17;;;2.88;;
10725;SDS011;5414;59.782;16.378;2023-06-22T13:34:49;3.47;;;2.40;;
10725;SDS011;5414;59.782;16.378;2023-06-22T13:37:15;4.57;;;3.00;;
10725;SDS011;5414;59.782;16.378;2023-06-22T13:39:41;5.07;;;2.88;;
10725;SDS011;5414;59.782;16.378;2023-06-22T13:42:07;3.40;;;3.10;;
10725;SDS011;5414;59.782;16.378;2023-06-22T13:44:33;4.45;;;2.90;;
10725;SDS011;5414;59.782;16.378;2023-06-22T13:46:59;3.47;;;3.08;;
10725;SDS011;5414;59.782;16.378;2023-06-22T13:49:25;3.17;;;2.92;;
10725;SDS011;5414;59.782;16.378;2023-06-22T13:51:51;5.10;;;3.00;;
10725;SDS011;5414;59.782;16.378;2023-06-22T13:54:17;2.97;;;2.70;;
10725;SDS011;5414;59.782;16.378;2023-06-22T13:56:43;3.08;;;2.88;;
10725;SDS011;5414;59.782;16.378;2023-06-22T13:59:10;3.03;;;2.70;;
10725;SDS011;5414;59.782;16.378;2023-06-22T14:01:36;3.53;;;3.20;;
10725;SDS011;5414;59.782;16.378;2023-06-22T14:04:04;3.20;;;3.00;;
10725;SDS011;5414;59.782;16.378;2023-06-22T14:06:30;3.33;;;3.00;;
10725;SDS011;5414;59.782;16.378;2023-06-22T14:08:56;2.85;;;2.60;;
10725;SDS011;5414;59.782;16.378;2023-06-22T14:11:22;3.53;;;3.22;;
10725;SDS011;5414;59.782;16.378;2023-06-22T14:13:48;2.90;;;2.63;;
10725;SDS011;5414;59.782;16.378;2023-06-22T14:16:14;3.33;;;2.53;;
10725;SDS011;5414;59.782;16.378;2023-06-22T14:18:40;3.85;;;2.58;;
10725;SDS011;5414;59.782;16.378;2023-06-22T14:21:06;3.03;;;2.83;;
10725;SDS011;5414;59.782;16.378;2023-06-22T14:23:32;2.88;;;2.60;;
10725;SDS011;5414;59.782;16.378;2023-06-22T14:25:58;3.10;;;2.78;;
10725;SDS011;5414;59.782;16.378;2023-06-22T14:28:24;3.03;;;2.83;;
10725;SDS011;5414;59.782;16.378;2023-06-22T14:30:50;3.28;;;2.92;;
10725;SDS011;5414;59.782;16.378;2023-06-22T14:33:16;3.28;;;2.97;;
10725;SDS011;5414;59.782;16.378;2023-06-22T14:35:42;2.83;;;2.63;;
10725;SDS011;5414;59.782;16.378;2023-06-22T14:38:08;3.22;;;2.83;;
10725;SDS011;5414;59.782;16.378;2023-06-22T14:40:34;3.63;;;2.63;;
10725;SDS011;5414;59.782;16.378;2023-06-22T14:43:00;3.75;;;2.70;;